Terminal Aerodrome Forecast
Issued by NWS Midland/Odessa, TX

Home | Current Version | Previous Version | Text Only | Print | Product List | Glossary On
Versions: 1 2 3 4 5 6 7 8 9 10 11 12 13 14 15 16 17 18 19 20 21 22 23 24 25 26 27 28 29 30
000
FTUS44 KMAF 211100
TAFMAF
TAF
KMAF 211127Z 2112/2212 09007KT P6SM SCT007 OVC015
      TEMPO 2112/2116 4SM SHRA BR BKN007
     FM211600 08009KT P6SM OVC025
      TEMPO 2116/2120 4SM TSRA BR BKN007 OVC025CB
     FM212000 07010KT P6SM BKN040
      TEMPO 2120/2124 4SM TSRA BR OVC025CB=

USA.gov is the U.S. government's official web portal to all federal, state and local government web resources and services.